createdAt,value
2023-04-10T00:02:29.357Z,5.44
2023-04-10T00:06:12.278Z,5.44
2023-04-10T00:09:55.029Z,5.44
2023-04-10T00:13:39.052Z,5.45
2023-04-10T00:17:21.745Z,5.43
2023-04-10T00:21:04.744Z,5.46
2023-04-10T00:24:47.372Z,5.44
2023-04-10T00:28:30.009Z,5.44
2023-04-10T00:32:14.084Z,5.43
2023-04-10T00:35:56.845Z,5.47
2023-04-10T00:39:39.451Z,5.46
2023-04-10T00:43:24.359Z,5.46
2023-04-10T00:47:07.529Z,5.47
2023-04-10T00:50:51.591Z,5.45
2023-04-10T00:54:36.492Z,5.46
2023-04-10T00:58:19.409Z,5.42
2023-04-10T01:02:02.366Z,5.37
2023-04-10T01:05:51.744Z,5.34
2023-04-10T01:09:42.980Z,5.28
2023-04-10T01:13:29.658Z,5.24
2023-04-10T01:17:14.732Z,5.21
2023-04-10T01:20:57.750Z,5.16
2023-04-10T01:24:54.053Z,5.09
2023-04-10T01:29:05.273Z,4.99
2023-04-10T01:32:48.043Z,4.94
2023-04-10T01:36:38.181Z,4.85
2023-04-10T01:40:21.855Z,4.77
2023-04-10T01:44:07.433Z,4.71
2023-04-10T01:47:50.824Z,4.68
2023-04-10T01:51:33.844Z,4.63
2023-04-10T01:55:16.724Z,4.59
2023-04-10T01:58:59.413Z,4.58
2023-04-10T02:02:44.724Z,4.55
2023-04-10T02:06:31.980Z,4.53
2023-04-10T02:10:17.852Z,4.48
2023-04-10T02:14:02.074Z,4.44
2023-04-10T02:17:46.266Z,4.40
2023-04-10T02:21:29.882Z,4.32
2023-04-10T02:25:12.735Z,4.28
2023-04-10T02:28:55.851Z,4.23
2023-04-10T02:32:38.618Z,4.21
2023-04-10T02:36:22.704Z,4.18
2023-04-10T02:40:06.247Z,4.10
2023-04-10T02:43:48.896Z,4.04
2023-04-10T02:47:32.110Z,3.98
2023-04-10T02:51:14.769Z,3.89
2023-04-10T02:54:58.784Z,3.89
2023-04-10T02:58:45.440Z,3.84
2023-04-10T03:02:28.159Z,3.84
2023-04-10T03:06:11.493Z,3.81
2023-04-10T03:09:54.077Z,3.79
2023-04-10T03:13:38.071Z,3.77
2023-04-10T03:17:20.723Z,3.74
2023-04-10T03:21:03.512Z,3.70
2023-04-10T03:24:46.138Z,3.67
2023-04-10T03:28:29.699Z,3.64
2023-04-10T03:32:13.657Z,3.58
2023-04-10T03:35:57.327Z,3.55
2023-04-10T03:39:40.154Z,3.53
2023-04-10T03:43:25.757Z,3.43
2023-04-10T03:47:08.418Z,3.37
2023-04-10T03:50:52.565Z,3.33
2023-04-10T03:54:35.501Z,3.33
2023-04-10T03:58:18.537Z,3.29
2023-04-10T04:02:01.285Z,3.27
2023-04-10T04:05:43.920Z,3.26
2023-04-10T04:09:27.969Z,3.31
2023-04-10T04:13:10.759Z,3.29
2023-04-10T04:16:53.519Z,3.21
2023-04-10T04:20:36.231Z,3.20
2023-04-10T04:24:18.897Z,3.15
2023-04-10T04:28:02.910Z,3.11
2023-04-10T04:31:45.579Z,3.07
2023-04-10T04:35:28.266Z,3.02
2023-04-10T04:39:10.944Z,3.02
2023-04-10T04:42:53.567Z,2.97
2023-04-10T04:46:37.539Z,2.94
2023-04-10T04:50:20.346Z,2.90
2023-04-10T04:54:02.983Z,2.94
2023-04-10T04:57:45.594Z,2.93
2023-04-10T05:01:28.339Z,2.98
2023-04-10T05:05:12.368Z,2.98
2023-04-10T05:08:55.299Z,3.00
2023-04-10T05:12:38.046Z,2.98
2023-04-10T05:16:20.803Z,3.00
2023-04-10T05:20:04.846Z,2.99
2023-04-10T05:23:48.888Z,3.01
2023-04-10T05:27:31.537Z,3.07
2023-04-10T05:31:14.272Z,3.13
2023-04-10T05:34:57.196Z,3.15
2023-04-10T05:38:39.816Z,3.18
2023-04-10T05:42:23.980Z,3.22
2023-04-10T05:46:07.298Z,3.26
2023-04-10T05:49:49.903Z,3.35
2023-04-10T05:53:32.893Z,3.39
2023-04-10T05:57:15.623Z,3.47
2023-04-10T06:00:59.822Z,3.53
2023-04-10T06:04:42.669Z,3.64
2023-04-10T06:08:25.637Z,3.76
2023-04-10T06:12:08.260Z,3.85
2023-04-10T06:15:50.968Z,3.96
2023-04-10T06:19:34.993Z,4.12
2023-04-10T06:23:17.606Z,4.19
2023-04-10T06:27:00.794Z,4.27
2023-04-10T06:30:43.417Z,4.39
2023-04-10T06:34:26.028Z,4.54
2023-04-10T06:38:10.022Z,4.62
2023-04-10T06:41:52.666Z,4.71
2023-04-10T06:45:35.358Z,4.80
2023-04-10T06:49:17.987Z,4.93
2023-04-10T06:53:00.744Z,5.05
2023-04-10T06:56:44.750Z,5.22
2023-04-10T07:00:27.721Z,5.35
2023-04-10T07:04:10.599Z,5.60
2023-04-10T07:07:53.346Z,5.68
2023-04-10T07:11:36.085Z,5.80
2023-04-10T07:15:20.745Z,5.92
2023-04-10T07:19:03.419Z,6.14
2023-04-10T07:22:46.128Z,6.29
2023-04-10T07:26:28.793Z,6.43
2023-04-10T07:30:14.379Z,6.59
2023-04-10T07:33:58.352Z,6.66
2023-04-10T07:37:43.734Z,6.76
2023-04-10T07:41:26.456Z,6.87
2023-04-10T07:45:10.385Z,7.10
2023-04-10T07:48:53.184Z,7.18
2023-04-10T07:52:37.436Z,7.35
2023-04-10T07:56:21.327Z,7.51
2023-04-10T08:00:04.417Z,7.67
2023-04-10T08:03:50.151Z,7.78
2023-04-10T08:07:32.846Z,7.81
2023-04-10T08:11:27.656Z,7.92
2023-04-10T08:15:11.159Z,8.01
2023-04-10T08:18:54.178Z,8.11
2023-04-10T08:22:37.073Z,8.39
2023-04-10T08:26:21.305Z,8.46
2023-04-10T08:30:06.241Z,8.54
2023-04-10T08:33:49.497Z,8.56
2023-04-10T08:37:32.179Z,8.57
2023-04-10T08:41:16.437Z,8.77
2023-04-10T08:44:59.116Z,8.90
2023-04-10T08:48:48.139Z,8.98
2023-04-10T08:52:31.812Z,8.94
2023-04-10T08:56:15.510Z,9.06
2023-04-10T09:00:03.900Z,9.15
2023-04-10T09:03:51.448Z,9.29
2023-04-10T09:07:34.207Z,9.25
2023-04-10T09:11:16.818Z,9.31
2023-04-10T09:14:59.512Z,9.42
2023-04-10T09:18:43.620Z,9.49
2023-04-10T09:22:32.540Z,9.55
2023-04-10T09:26:28.308Z,9.75
2023-04-10T09:30:12.617Z,9.77
2023-04-10T09:34:08.273Z,9.76
2023-04-10T09:37:52.321Z,9.88
2023-04-10T09:41:35.005Z,10.07
2023-04-10T09:45:20.143Z,10.08
2023-04-10T09:49:05.313Z,10.18
2023-04-10T09:52:48.718Z,10.20
2023-04-10T09:56:34.720Z,10.34
2023-04-10T10:00:17.807Z,10.39
2023-04-10T10:04:02.824Z,10.51
2023-04-10T10:07:46.048Z,10.62
2023-04-10T10:11:29.637Z,10.70
2023-04-10T10:15:16.448Z,10.77
2023-04-10T10:19:02.926Z,10.77
2023-04-10T10:22:48.318Z,10.85
2023-04-10T10:26:31.853Z,10.97
2023-04-10T10:30:29.474Z,11.02
2023-04-10T10:34:13.588Z,11.11
2023-04-10T10:37:56.365Z,11.14
2023-04-10T10:41:43.859Z,11.14
2023-04-10T10:45:34.457Z,11.23
2023-04-10T10:49:17.229Z,11.32
2023-04-10T10:53:01.334Z,11.44
2023-04-10T10:56:43.977Z,11.41
2023-04-10T11:00:48.797Z,11.44
2023-04-10T11:04:43.396Z,11.46
2023-04-10T11:08:47.075Z,11.61
2023-04-10T11:12:29.756Z,11.73
2023-04-10T11:16:13.796Z,11.84
2023-04-10T11:20:01.032Z,11.87
2023-04-10T11:24:03.959Z,11.89
2023-04-10T11:27:49.227Z,12.04
2023-04-10T11:31:33.627Z,12.04
2023-04-10T11:35:19.945Z,12.17
2023-04-10T11:39:05.781Z,12.29
2023-04-10T11:42:48.849Z,12.41
2023-04-10T11:46:33.062Z,12.49
2023-04-10T11:50:18.038Z,12.58
2023-04-10T11:54:11.679Z,12.81
2023-04-10T11:57:54.342Z,12.85
2023-04-10T12:01:41.112Z,12.97
2023-04-10T12:05:25.519Z,13.07
2023-04-10T12:09:14.311Z,13.04
2023-04-10T12:12:56.946Z,13.13
2023-04-10T12:16:41.999Z,13.25
2023-04-10T12:20:27.761Z,13.42
2023-04-10T12:24:10.505Z,13.51
2023-04-10T12:27:53.192Z,13.66
2023-04-10T12:31:37.088Z,13.89
2023-04-10T12:35:21.596Z,14.09
2023-04-10T12:39:05.680Z,14.35
2023-04-10T12:42:48.341Z,14.42
2023-04-10T12:46:31.452Z,14.49
2023-04-10T12:50:15.461Z,14.61
2023-04-10T12:53:59.513Z,14.89
2023-04-10T12:57:42.694Z,15.19
2023-04-10T13:01:25.369Z,15.38
2023-04-10T13:05:09.066Z,15.59
2023-04-10T13:08:52.948Z,15.90
2023-04-10T13:12:38.863Z,15.99
2023-04-10T13:16:21.574Z,16.05
2023-04-10T13:20:04.674Z,16.12
2023-04-10T13:23:47.465Z,16.32
2023-04-10T13:27:30.188Z,16.59
2023-04-10T13:31:15.911Z,16.72
2023-04-10T13:34:58.896Z,16.97
2023-04-10T13:38:41.616Z,17.10
2023-04-10T13:42:24.295Z,17.16
2023-04-10T13:46:07.322Z,17.43
2023-04-10T13:49:51.360Z,17.58
2023-04-10T13:53:34.060Z,17.66
2023-04-10T13:57:16.762Z,17.63
2023-04-10T14:00:59.502Z,17.70
2023-04-10T14:04:42.773Z,17.84
2023-04-10T14:08:27.084Z,18.05
2023-04-10T14:12:10.718Z,18.34
2023-04-10T14:15:53.747Z,18.58
2023-04-10T14:19:36.587Z,18.83
2023-04-10T14:23:19.250Z,19.06
2023-04-10T14:27:03.297Z,19.23
2023-04-10T14:30:46.174Z,19.47
2023-04-10T14:34:28.849Z,19.78
2023-04-10T14:38:11.582Z,20.09
2023-04-10T14:41:54.270Z,20.31
2023-04-10T14:45:38.325Z,20.52
2023-04-10T14:49:21.051Z,20.72
2023-04-10T14:53:03.802Z,20.87
2023-04-10T14:56:46.543Z,21.12
2023-04-10T15:00:29.765Z,21.44
2023-04-10T15:04:13.905Z,21.77
2023-04-10T15:07:56.726Z,22.09
2023-04-10T15:11:39.420Z,22.44
2023-04-10T15:15:22.124Z,22.68
2023-04-10T15:19:04.833Z,22.83
2023-04-10T15:22:48.991Z,22.68
2023-04-10T15:26:35.040Z,22.71
2023-04-10T15:30:17.702Z,22.77
2023-04-10T15:34:00.373Z,22.93
2023-04-10T15:37:43.111Z,23.08
2023-04-10T15:41:28.112Z,23.30
2023-04-10T15:45:10.838Z,23.56
2023-04-10T15:48:53.584Z,23.67
2023-04-10T15:52:36.208Z,23.76
2023-04-10T15:56:18.820Z,23.94
2023-04-10T16:00:04.329Z,24.01
2023-04-10T16:03:48.948Z,23.91
2023-04-10T16:07:31.977Z,23.62
2023-04-10T16:11:14.619Z,23.20
2023-04-10T16:14:57.909Z,22.59
2023-04-10T16:18:41.874Z,22.13
2023-04-10T16:22:24.918Z,21.62
2023-04-10T16:26:07.873Z,21.10
2023-04-10T16:29:50.626Z,20.71
2023-04-10T16:33:33.259Z,20.37
2023-04-10T16:37:17.280Z,19.99
2023-04-10T16:41:02.940Z,19.70
2023-04-10T16:44:45.556Z,19.39
2023-04-10T16:48:28.336Z,19.12
2023-04-10T16:52:11.046Z,18.79
2023-04-10T16:56:00.525Z,18.55
2023-04-10T16:59:45.744Z,18.36
2023-04-10T17:03:28.485Z,18.01
2023-04-10T17:07:11.164Z,17.73
2023-04-10T17:10:53.790Z,17.69
2023-04-10T17:14:37.822Z,18.10
2023-04-10T17:18:21.638Z,17.71
2023-04-10T17:22:04.518Z,17.45
2023-04-10T17:25:47.158Z,17.23
2023-04-10T17:29:29.797Z,16.96
2023-04-10T17:33:13.778Z,16.78
2023-04-10T17:36:56.450Z,16.47
2023-04-10T17:40:40.879Z,16.14
2023-04-10T17:44:23.800Z,15.89
2023-04-10T17:48:06.931Z,15.67
2023-04-10T17:51:51.087Z,15.41
2023-04-10T17:55:38.919Z,15.19
2023-04-10T17:59:21.506Z,14.98
2023-04-10T18:03:04.298Z,14.77
2023-04-10T18:06:47.018Z,14.58
2023-04-10T18:10:31.039Z,14.45
2023-04-10T18:14:13.664Z,14.34
2023-04-10T18:17:56.385Z,14.24
2023-04-10T18:21:41.848Z,14.15
2023-04-10T18:25:24.488Z,14.06
2023-04-10T18:29:08.610Z,13.93
2023-04-10T18:32:52.082Z,13.82
2023-04-10T18:36:34.821Z,13.74
2023-04-10T18:40:19.583Z,13.68
2023-04-10T18:44:05.430Z,13.56
2023-04-10T18:47:49.928Z,13.47
2023-04-10T18:51:34.971Z,13.41
2023-04-10T18:55:18.168Z,13.32
2023-04-10T18:59:00.797Z,13.21
2023-04-10T19:02:43.534Z,13.18
2023-04-10T19:06:27.881Z,13.07
2023-04-10T19:10:11.353Z,12.98
2023-04-10T19:13:54.173Z,12.82
2023-04-10T19:17:37.235Z,12.73
2023-04-10T19:21:19.897Z,12.60
2023-04-10T19:25:04.278Z,12.47
2023-04-10T19:28:47.178Z,12.42
2023-04-10T19:32:29.832Z,12.34
2023-04-10T19:36:12.573Z,12.21
2023-04-10T19:40:00.568Z,12.12
2023-04-10T19:43:45.073Z,12.02
2023-04-10T19:47:27.822Z,11.98
2023-04-10T19:51:10.478Z,11.97
2023-04-10T19:54:53.173Z,11.85
2023-04-10T19:58:40.948Z,11.74
2023-04-10T20:02:25.721Z,11.63
2023-04-10T20:06:09.015Z,11.51
2023-04-10T20:09:51.636Z,11.52
2023-04-10T20:13:34.757Z,11.38
2023-04-10T20:17:17.590Z,11.35
2023-04-10T20:21:01.654Z,11.28
2023-04-10T20:24:44.428Z,11.19
2023-04-10T20:28:27.088Z,11.13
2023-04-10T20:32:09.798Z,11.09
2023-04-10T20:35:53.494Z,10.99
2023-04-10T20:39:37.762Z,10.93
2023-04-10T20:43:21.019Z,10.87
2023-04-10T20:47:03.720Z,10.76
2023-04-10T20:50:49.044Z,10.70
2023-04-10T20:54:31.803Z,10.68
2023-04-10T20:58:15.773Z,10.70
2023-04-10T21:01:59.283Z,10.70
2023-04-10T21:05:45.351Z,10.69
2023-04-10T21:09:28.025Z,10.70
2023-04-10T21:13:10.836Z,10.71
2023-04-10T21:16:55.016Z,10.72
2023-04-10T21:20:38.001Z,10.72
2023-04-10T21:24:20.655Z,10.62
2023-04-10T21:28:03.436Z,10.65
2023-04-10T21:31:46.077Z,10.70
2023-04-10T21:35:30.396Z,10.66
2023-04-10T21:39:13.090Z,10.60
2023-04-10T21:42:56.708Z,10.60
2023-04-10T21:46:39.420Z,10.56
2023-04-10T21:50:22.070Z,10.59
2023-04-10T21:54:06.248Z,10.65
2023-04-10T21:57:48.898Z,10.66
2023-04-10T22:01:31.907Z,10.62
2023-04-10T22:05:16.676Z,10.57
2023-04-10T22:08:59.336Z,10.57
2023-04-10T22:12:43.745Z,10.63
2023-04-10T22:16:27.462Z,10.58
2023-04-10T22:20:13.627Z,10.52
2023-04-10T22:23:56.312Z,10.58
2023-04-10T22:27:39.027Z,10.60
2023-04-10T22:31:23.233Z,10.40
2023-04-10T22:35:07.247Z,10.23
2023-04-10T22:38:49.876Z,10.12
2023-04-10T22:42:32.529Z,10.09
2023-04-10T22:46:15.282Z,10.01
2023-04-10T22:49:59.337Z,9.90
2023-04-10T22:53:42.097Z,9.89
2023-04-10T22:57:27.509Z,9.89
2023-04-10T23:01:11.705Z,9.86
2023-04-10T23:04:54.560Z,9.86
2023-04-10T23:08:38.876Z,9.88
2023-04-10T23:12:22.841Z,9.88
2023-04-10T23:16:06.037Z,9.92
2023-04-10T23:19:48.701Z,9.95
2023-04-10T23:23:31.326Z,9.93
2023-04-10T23:27:15.359Z,9.97
2023-04-10T23:30:58.017Z,9.98
2023-04-10T23:34:40.824Z,9.97
2023-04-10T23:38:23.701Z,9.95
2023-04-10T23:42:06.571Z,9.93
2023-04-10T23:45:50.555Z,9.92
2023-04-10T23:49:34.854Z,9.94
2023-04-10T23:53:17.650Z,9.94
2023-04-10T23:57:00.304Z,9.97
